Time,TemperatureF,DewpointF,PressureIn,WindDirection,WindDirectionDegrees,WindSpeedMPH,WindSpeedGustMPH,Humidity,HourlyPrecipIn,Conditions,Clouds,dailyrainin,SoftwareType,DateUTC
2013-10-07 11:10:00,69.9,66.8,29.95,SE,126,4.0,4.0,90,0.00,,,0.04,Wunderground v.1.15,2013-10-07 15:10:00,
2013-10-07 11:15:00,69.9,66.8,29.94,WNW,293,4.0,4.0,90,0.00,,,0.04,Wunderground v.1.15,2013-10-07 15:15:00,
2013-10-07 11:20:00,70.1,67.3,29.94,West,279,3.0,4.0,91,0.00,,,0.04,Wunderground v.1.15,2013-10-07 15:20:00,
2013-10-07 11:25:00,70.2,67.4,29.94,East,100,2.0,4.0,91,0.00,,,0.04,Wunderground v.1.15,2013-10-07 15:25:00,
2013-10-07 11:35:00,70.4,67.6,29.94,West,275,2.0,6.0,91,0.00,,,0.04,Wunderground v.1.15,2013-10-07 15:35:00,
2013-10-07 11:45:00,70.8,68.0,29.94,West,276,3.0,4.0,91,0.00,,,0.04,Wunderground v.1.15,2013-10-07 15:45:00,
2013-10-07 11:50:00,71.0,68.2,29.94,WSW,257,3.0,6.0,91,0.00,,,0.04,Wunderground v.1.15,2013-10-07 15:50:00,
2013-10-07 12:00:00,71.2,68.1,29.93,ESE,115,5.0,6.0,90,0.00,,,0.04,Wunderground v.1.15,2013-10-07 16:00:00,
2013-10-07 12:05:00,71.4,68.3,29.93,ESE,117,5.0,6.0,90,0.00,,,0.04,Wunderground v.1.15,2013-10-07 16:05:00,
2013-10-07 12:15:00,72.3,68.9,29.92,NNW,340,4.0,4.0,89,0.00,,,0.04,Wunderground v.1.15,2013-10-07 16:15:00,
2013-10-07 12:25:00,73.0,69.2,29.92,SW,230,4.0,5.0,88,0.00,,,0.04,Wunderground v.1.15,2013-10-07 16:25:00,
2013-10-07 12:30:00,73.3,69.2,29.91,WNW,300,6.0,8.0,87,0.00,,,0.04,Wunderground v.1.15,2013-10-07 16:30:00,
2013-10-07 12:40:00,74.3,69.5,29.90,ESE,115,6.0,9.0,85,0.00,,,0.04,Wunderground v.1.15,2013-10-07 16:40:00,
2013-10-07 12:50:00,75.1,69.6,29.89,ESE,107,6.0,11.0,83,0.00,,,0.04,Wunderground v.1.15,2013-10-07 16:50:00,
2013-10-07 12:55:00,75.2,69.0,29.89,ESE,105,5.0,13.0,81,0.00,,,0.04,Wunderground v.1.15,2013-10-07 16:55:00,
2013-10-07 13:00:00,75.2,69.0,29.89,SW,225,6.0,6.0,81,0.00,,,0.04,Wunderground v.1.15,2013-10-07 17:00:00,
2013-10-07 13:05:00,75.0,68.8,29.89,SW,219,6.0,9.0,81,0.00,,,0.04,Wunderground v.1.15,2013-10-07 17:05:00,
2013-10-07 13:15:00,74.3,68.4,29.88,West,265,7.0,12.0,82,0.00,,,0.04,Wunderground v.1.15,2013-10-07 17:15:00,
2013-10-07 13:25:00,74.6,68.7,29.88,ESE,103,6.0,12.0,82,0.00,,,0.04,Wunderground v.1.15,2013-10-07 17:25:00,
2013-10-07 13:35:00,75.3,68.3,29.87,NW,311,8.0,11.0,79,0.00,,,0.04,Wunderground v.1.15,2013-10-07 17:35:00,
2013-10-07 13:40:00,75.6,68.6,29.87,WNW,284,8.0,12.0,79,0.00,,,0.04,Wunderground v.1.15,2013-10-07 17:40:00,
2013-10-07 13:50:00,76.3,68.6,29.86,NNW,342,7.0,7.0,77,0.00,,,0.04,Wunderground v.1.15,2013-10-07 17:50:00,
2013-10-07 14:00:00,76.4,68.3,29.86,ESE,107,8.0,16.0,76,0.00,,,0.04,Wunderground v.1.15,2013-10-07 18:00:00,
2013-10-07 14:05:00,76.6,68.1,29.86,NNE,28,9.0,16.0,75,0.00,,,0.04,Wunderground v.1.15,2013-10-07 18:05:00,
2013-10-07 14:15:00,76.4,67.9,29.85,SSE,148,9.0,24.0,75,0.00,,,0.04,Wunderground v.1.15,2013-10-07 18:15:00,
2013-10-07 14:25:00,77.0,68.1,29.85,ESE,103,6.0,11.0,74,0.00,,,0.04,Wunderground v.1.15,2013-10-07 18:25:00,
2013-10-07 14:30:00,77.3,68.0,29.85,ESE,103,7.0,9.0,73,0.00,,,0.04,Wunderground v.1.15,2013-10-07 18:30:00,
2013-10-07 14:40:00,76.9,68.8,29.84,SSW,213,7.0,10.0,76,0.00,,,0.04,Wunderground v.1.15,2013-10-07 18:40:00,
2013-10-07 14:50:00,76.2,68.5,29.84,NNW,334,9.0,9.0,77,0.00,,,0.04,Wunderground v.1.15,2013-10-07 18:50:00,
2013-10-07 15:00:00,75.8,68.4,29.84,ESE,113,10.0,12.0,78,0.00,,,0.04,Wunderground v.1.15,2013-10-07 19:00:00,
2013-10-07 15:05:00,75.8,68.1,29.83,ESE,107,10.0,12.0,77,0.00,,,0.04,Wunderground v.1.15,2013-10-07 19:05:00,
2013-10-07 15:15:00,76.5,68.7,29.83,SE,133,9.0,9.0,77,0.00,,,0.04,Wunderground v.1.15,2013-10-07 19:15:00,
2013-10-07 15:25:00,76.8,68.7,29.83,WSW,250,10.0,10.0,76,0.00,,,0.04,Wunderground v.1.15,2013-10-07 19:25:00,
2013-10-07 15:35:00,76.8,68.7,29.83,North,351,9.0,9.0,76,0.00,,,0.04,Wunderground v.1.15,2013-10-07 19:35:00,
2013-10-07 15:45:00,76.3,68.6,29.82,West,268,9.0,10.0,77,0.00,,,0.04,Wunderground v.1.15,2013-10-07 19:45:00,